createdAt,value
2018-03-02T00:00:00.409Z,45.40
2018-03-02T00:00:32.153Z,45.40
2018-03-02T00:01:03.902Z,45.40
2018-03-02T00:01:35.647Z,45.40
2018-03-02T00:02:07.389Z,45.40
2018-03-02T00:02:39.135Z,45.40
2018-03-02T00:03:10.896Z,45.50
2018-03-02T00:03:42.630Z,45.00
2018-03-02T00:04:14.391Z,45.50
2018-03-02T00:04:46.907Z,45.50
2018-03-02T00:05:18.667Z,45.50
2018-03-02T00:05:50.407Z,45.50
2018-03-02T00:06:22.151Z,45.50
2018-03-02T00:06:53.920Z,45.50
2018-03-02T00:07:25.689Z,45.50
2018-03-02T00:07:57.436Z,45.50
2018-03-02T00:08:29.174Z,45.50
2018-03-02T00:09:00.927Z,45.50
2018-03-02T00:09:32.696Z,45.50
2018-03-02T00:10:04.540Z,45.50
2018-03-02T00:10:36.257Z,45.50
2018-03-02T00:11:08.786Z,45.60
2018-03-02T00:11:40.543Z,45.50
2018-03-02T00:12:12.288Z,45.50
2018-03-02T00:12:44.048Z,45.60
2018-03-02T00:13:16.571Z,45.60
2018-03-02T00:13:48.317Z,45.60
2018-03-02T00:14:20.060Z,45.60
2018-03-02T00:14:51.813Z,45.50
2018-03-02T00:15:23.556Z,45.50
2018-03-02T00:15:55.512Z,45.60
2018-03-02T00:16:27.272Z,45.60
2018-03-02T00:16:59.008Z,45.70
2018-03-02T00:17:31.515Z,45.70
2018-03-02T00:18:03.304Z,45.60
2018-03-02T00:18:35.040Z,45.60
2018-03-02T00:19:06.772Z,46.20
2018-03-02T00:19:38.518Z,45.60
2018-03-02T00:20:10.258Z,45.60
2018-03-02T00:20:42.017Z,45.60
2018-03-02T00:21:13.842Z,45.60
2018-03-02T00:21:45.607Z,45.60
2018-03-02T00:22:17.392Z,45.60
2018-03-02T00:22:49.907Z,45.70
2018-03-02T00:23:21.648Z,45.60
2018-03-02T00:23:53.392Z,45.60
2018-03-02T00:24:25.164Z,45.60
2018-03-02T00:24:56.935Z,45.60
2018-03-02T00:25:29.445Z,45.70
2018-03-02T00:26:01.189Z,45.70
2018-03-02T00:26:32.971Z,45.70
2018-03-02T00:27:04.891Z,45.70
2018-03-02T00:27:36.638Z,45.70
2018-03-02T00:28:08.385Z,45.70
2018-03-02T00:28:40.128Z,45.70
2018-03-02T00:29:11.884Z,45.70
2018-03-02T00:29:43.632Z,45.70
2018-03-02T00:30:15.353Z,45.70
2018-03-02T00:30:47.132Z,46.30
2018-03-02T00:31:19.645Z,45.80
2018-03-02T00:31:51.399Z,45.80
2018-03-02T00:32:23.171Z,45.70
2018-03-02T00:32:54.896Z,45.80
2018-03-02T00:33:26.672Z,45.70
2018-03-02T00:33:59.208Z,45.80
2018-03-02T00:34:30.962Z,45.80
2018-03-02T00:35:02.720Z,45.80
2018-03-02T00:35:34.479Z,45.80
2018-03-02T00:36:06.999Z,45.80
2018-03-02T00:36:38.751Z,45.80
2018-03-02T00:37:10.521Z,45.80
2018-03-02T00:37:42.232Z,45.80
2018-03-02T00:38:13.983Z,45.80
2018-03-02T00:38:45.789Z,45.80
2018-03-02T00:39:17.528Z,45.80
2018-03-02T00:39:49.279Z,45.80
2018-03-02T00:40:21.058Z,45.80
2018-03-02T00:40:52.800Z,45.90
2018-03-02T00:41:24.550Z,45.80
2018-03-02T00:41:56.286Z,45.90
2018-03-02T00:42:28.038Z,45.80
2018-03-02T00:42:59.794Z,45.80
2018-03-02T00:43:31.529Z,45.90
2018-03-02T00:44:03.277Z,45.90
2018-03-02T00:44:35.030Z,45.90
2018-03-02T00:45:06.777Z,45.90
2018-03-02T00:45:38.542Z,45.90
2018-03-02T00:46:10.277Z,46.00
2018-03-02T00:46:42.013Z,46.00
2018-03-02T00:47:13.756Z,45.40
2018-03-02T00:47:45.494Z,45.90
2018-03-02T00:48:17.423Z,46.00
2018-03-02T00:48:49.182Z,45.90
2018-03-02T00:49:20.972Z,45.90
2018-03-02T00:49:52.723Z,45.90
2018-03-02T00:50:24.546Z,46.00
2018-03-02T00:50:56.281Z,46.00
2018-03-02T00:51:28.816Z,46.10
2018-03-02T00:52:00.554Z,46.00
2018-03-02T00:52:32.300Z,46.00
2018-03-02T00:53:04.085Z,46.00
2018-03-02T00:53:36.604Z,46.00
2018-03-02T00:54:08.337Z,46.00
2018-03-02T00:54:40.090Z,46.00
2018-03-02T00:55:11.821Z,46.00
2018-03-02T00:55:43.609Z,46.00
2018-03-02T00:56:15.410Z,46.60
2018-03-02T00:56:47.894Z,46.00
2018-03-02T00:57:19.635Z,46.00
2018-03-02T00:57:51.384Z,46.00
2018-03-02T00:58:23.151Z,45.90
2018-03-02T00:58:54.889Z,46.00
2018-03-02T00:59:26.635Z,46.00
2018-03-02T00:59:58.437Z,46.00
2018-03-02T01:00:30.924Z,46.00
2018-03-02T01:01:02.701Z,46.00
2018-03-02T01:01:34.450Z,46.00
2018-03-02T01:02:07.694Z,46.10
2018-03-02T01:02:39.443Z,46.00
2018-03-02T01:03:11.186Z,46.00
2018-03-02T01:03:42.927Z,46.00
2018-03-02T01:04:14.676Z,46.00
2018-03-02T01:04:46.420Z,46.00
2018-03-02T01:05:18.171Z,46.00
2018-03-02T01:05:49.923Z,46.00
2018-03-02T01:06:21.869Z,46.00
2018-03-02T01:06:53.650Z,46.10
2018-03-02T01:07:25.399Z,46.00
2018-03-02T01:07:57.136Z,46.00
2018-03-02T01:08:29.010Z,46.10
2018-03-02T01:09:00.748Z,46.10
2018-03-02T01:09:32.507Z,46.10
2018-03-02T01:10:04.659Z,46.10
2018-03-02T01:10:37.133Z,46.10
2018-03-02T01:11:08.888Z,46.10
2018-03-02T01:11:40.662Z,46.10
2018-03-02T01:12:12.592Z,46.10
2018-03-02T01:12:44.334Z,46.10
2018-03-02T01:13:16.090Z,46.10
2018-03-02T01:13:47.839Z,46.10
2018-03-02T01:14:20.574Z,46.20
2018-03-02T01:14:52.327Z,46.10
2018-03-02T01:15:24.067Z,46.20
2018-03-02T01:15:55.800Z,46.20
2018-03-02T01:16:27.568Z,46.20
2018-03-02T01:16:59.315Z,46.20
2018-03-02T01:17:31.066Z,46.20
2018-03-02T01:18:02.816Z,46.20
2018-03-02T01:18:34.580Z,46.20
2018-03-02T01:19:07.081Z,46.20
2018-03-02T01:19:38.855Z,46.20
2018-03-02T01:20:10.592Z,46.30
2018-03-02T01:20:42.354Z,46.20
2018-03-02T01:21:14.102Z,46.20
2018-03-02T01:21:45.834Z,46.20
2018-03-02T01:22:17.590Z,46.20
2018-03-02T01:22:50.979Z,46.20
2018-03-02T01:23:23.637Z,46.20
2018-03-02T01:23:55.373Z,46.20
2018-03-02T01:24:27.127Z,46.20
2018-03-02T01:24:58.899Z,46.20
2018-03-02T01:25:31.415Z,46.20
2018-03-02T01:26:03.176Z,46.20
2018-03-02T01:26:35.692Z,46.20
2018-03-02T01:27:07.429Z,46.20
2018-03-02T01:27:39.174Z,46.20
2018-03-02T01:28:10.928Z,46.20
2018-03-02T01:28:42.671Z,46.20
2018-03-02T01:29:14.427Z,46.20
2018-03-02T01:29:46.488Z,46.20
2018-03-02T01:30:18.204Z,46.20
2018-03-02T01:30:49.943Z,46.20
2018-03-02T01:31:21.702Z,46.30
2018-03-02T01:31:53.432Z,46.30
2018-03-02T01:32:25.176Z,46.30
2018-03-02T01:32:57.006Z,46.30
2018-03-02T01:33:29.847Z,46.30
2018-03-02T01:34:01.598Z,46.20
2018-03-02T01:34:33.343Z,46.20
2018-03-02T01:35:05.083Z,46.20
2018-03-02T01:35:36.816Z,46.30
2018-03-02T01:36:08.559Z,46.30
2018-03-02T01:36:40.304Z,46.30
2018-03-02T01:37:12.092Z,46.30
2018-03-02T01:37:44.605Z,46.30
2018-03-02T01:38:16.336Z,46.30
2018-03-02T01:38:48.113Z,46.30
2018-03-02T01:39:19.834Z,46.30
2018-03-02T01:39:51.598Z,46.30
2018-03-02T01:40:23.334Z,46.30
2018-03-02T01:40:55.084Z,46.30
2018-03-02T01:41:26.835Z,46.30
2018-03-02T01:41:59.347Z,46.30
2018-03-02T01:42:31.104Z,46.30
2018-03-02T01:43:02.929Z,46.20
2018-03-02T01:43:34.676Z,46.30
2018-03-02T01:44:06.457Z,46.40
2018-03-02T01:44:38.209Z,46.30
2018-03-02T01:45:09.948Z,46.40
2018-03-02T01:45:41.832Z,46.30
2018-03-02T01:46:14.350Z,46.40
2018-03-02T01:46:46.077Z,46.30
2018-03-02T01:47:17.822Z,46.40
2018-03-02T01:47:49.583Z,46.40
2018-03-02T01:48:21.336Z,46.40
2018-03-02T01:48:53.087Z,47.00
2018-03-02T01:49:24.873Z,46.40
2018-03-02T01:49:57.398Z,46.40
2018-03-02T01:50:29.127Z,46.40
2018-03-02T01:51:00.882Z,46.40
2018-03-02T01:51:32.631Z,46.40
2018-03-02T01:52:04.403Z,46.40
2018-03-02T01:52:36.909Z,46.50
2018-03-02T01:53:08.652Z,46.40
2018-03-02T01:53:40.391Z,46.50
2018-03-02T01:54:12.131Z,46.50
2018-03-02T01:54:43.879Z,46.50
2018-03-02T01:55:15.616Z,46.40
2018-03-02T01:55:47.388Z,46.50
2018-03-02T01:56:19.228Z,46.50
2018-03-02T01:56:50.933Z,46.50
2018-03-02T01:57:23.639Z,46.50
2018-03-02T01:57:55.407Z,46.50
2018-03-02T01:58:27.139Z,46.50
2018-03-02T01:58:58.905Z,46.50
2018-03-02T01:59:30.650Z,46.50
2018-03-02T02:00:02.388Z,46.50
2018-03-02T02:00:34.169Z,46.50
2018-03-02T02:01:06.663Z,46.50
2018-03-02T02:01:38.408Z,46.50
2018-03-02T02:02:10.222Z,46.50
2018-03-02T02:02:42.731Z,46.50
2018-03-02T02:03:14.493Z,46.50
2018-03-02T02:03:46.216Z,46.50
2018-03-02T02:04:17.959Z,46.50
2018-03-02T02:04:49.703Z,46.50
2018-03-02T02:05:21.451Z,46.50
2018-03-02T02:05:53.220Z,46.60
2018-03-02T02:06:24.950Z,46.60
2018-03-02T02:06:56.689Z,46.60
2018-03-02T02:07:28.939Z,46.60
2018-03-02T02:08:00.648Z,46.60
2018-03-02T02:08:32.383Z,46.60
2018-03-02T02:09:04.900Z,46.70
2018-03-02T02:09:36.647Z,47.20
2018-03-02T02:10:08.396Z,46.60
2018-03-02T02:10:40.156Z,46.60
2018-03-02T02:11:11.921Z,46.60
2018-03-02T02:11:43.937Z,46.70
2018-03-02T02:12:15.692Z,46.60
2018-03-02T02:12:47.459Z,46.60
2018-03-02T02:13:19.488Z,46.60
2018-03-02T02:13:52.015Z,46.70
2018-03-02T02:14:23.763Z,46.70
2018-03-02T02:14:55.492Z,46.70
2018-03-02T02:15:27.239Z,46.70
2018-03-02T02:15:59.012Z,46.70
2018-03-02T02:16:30.770Z,46.70
2018-03-02T02:17:02.569Z,46.70
2018-03-02T02:17:34.300Z,46.70
2018-03-02T02:18:06.055Z,46.70
2018-03-02T02:18:37.792Z,46.70
2018-03-02T02:19:09.530Z,46.70
2018-03-02T02:19:41.282Z,46.70
2018-03-02T02:20:13.022Z,46.70
2018-03-02T02:20:44.763Z,46.70
2018-03-02T02:21:16.511Z,46.70
2018-03-02T02:21:48.268Z,46.70
2018-03-02T02:22:20.025Z,46.70
2018-03-02T02:22:51.757Z,46.70
2018-03-02T02:23:23.500Z,46.70
2018-03-02T02:23:55.223Z,46.70
2018-03-02T02:24:26.971Z,46.70
2018-03-02T02:24:58.838Z,46.70
2018-03-02T02:25:31.327Z,46.80
2018-03-02T02:26:03.071Z,46.70
2018-03-02T02:26:34.820Z,46.70
2018-03-02T02:27:06.576Z,46.70
2018-03-02T02:27:38.340Z,46.70
2018-03-02T02:28:10.065Z,46.70
2018-03-02T02:28:42.582Z,46.80
2018-03-02T02:29:14.315Z,46.70
2018-03-02T02:29:46.055Z,46.80
2018-03-02T02:30:17.803Z,46.70
2018-03-02T02:30:49.533Z,46.80
2018-03-02T02:31:22.048Z,46.80
2018-03-02T02:31:53.791Z,46.70
2018-03-02T02:32:25.533Z,46.70
2018-03-02T02:32:57.273Z,46.70
2018-03-02T02:33:29.019Z,46.80
2018-03-02T02:34:00.762Z,46.70
2018-03-02T02:34:32.803Z,46.80
2018-03-02T02:35:04.560Z,46.80
2018-03-02T02:35:36.286Z,46.80
2018-03-02T02:36:08.013Z,46.90
2018-03-02T02:36:39.763Z,46.80
2018-03-02T02:37:11.499Z,46.80
2018-03-02T02:37:43.240Z,46.80
2018-03-02T02:38:14.994Z,46.80
2018-03-02T02:38:47.012Z,46.80
2018-03-02T02:39:18.955Z,46.90
2018-03-02T02:39:50.708Z,46.80
2018-03-02T02:40:23.226Z,46.90
2018-03-02T02:40:55.159Z,46.90
2018-03-02T02:41:26.888Z,46.80
2018-03-02T02:41:58.629Z,46.80
2018-03-02T02:42:30.376Z,46.90
2018-03-02T02:43:02.110Z,46.90
2018-03-02T02:43:34.645Z,46.80
2018-03-02T02:44:06.383Z,46.80
2018-03-02T02:44:38.158Z,46.80
2018-03-02T02:45:09.896Z,46.80
2018-03-02T02:45:42.400Z,46.90
2018-03-02T02:46:14.156Z,46.90
2018-03-02T02:46:46.047Z,46.90
2018-03-02T02:47:18.565Z,46.80
2018-03-02T02:47:50.499Z,46.80
2018-03-02T02:48:22.261Z,46.90
2018-03-02T02:48:54.192Z,46.80
2018-03-02T02:49:25.946Z,46.90
2018-03-02T02:49:58.784Z,46.90
2018-03-02T02:50:31.312Z,47.00
2018-03-02T02:51:03.112Z,46.80
2018-03-02T02:51:34.841Z,47.00
2018-03-02T02:52:06.588Z,47.00
2018-03-02T02:52:38.340Z,46.90
2018-03-02T02:53:10.067Z,47.00
2018-03-02T02:53:42.581Z,46.90
2018-03-02T02:54:14.330Z,46.90
2018-03-02T02:54:46.281Z,47.00
2018-03-02T02:55:18.061Z,47.00
2018-03-02T02:55:50.561Z,47.00
2018-03-02T02:56:22.352Z,47.00
2018-03-02T02:56:54.102Z,46.90
2018-03-02T02:57:25.842Z,47.00
2018-03-02T02:57:57.895Z,46.90
2018-03-02T02:58:29.624Z,47.00
2018-03-02T02:59:01.391Z,47.00
2018-03-02T02:59:33.324Z,47.00
2018-03-02T03:00:05.072Z,47.00
2018-03-02T03:00:37.011Z,47.00
2018-03-02T03:01:08.760Z,47.00
2018-03-02T03:01:41.284Z,46.90
2018-03-02T03:02:13.035Z,47.00
2018-03-02T03:02:44.811Z,46.90
2018-03-02T03:03:16.559Z,47.00
2018-03-02T03:03:48.356Z,47.00
2018-03-02T03:04:20.079Z,47.00
2018-03-02T03:04:51.853Z,47.00
2018-03-02T03:05:23.565Z,47.10
2018-03-02T03:05:56.103Z,47.10
2018-03-02T03:06:27.881Z,47.00
2018-03-02T03:07:00.427Z,47.00
2018-03-02T03:07:32.157Z,47.00
2018-03-02T03:08:03.912Z,47.10
2018-03-02T03:08:35.662Z,47.60
2018-03-02T03:09:08.174Z,47.10
2018-03-02T03:09:39.912Z,47.00
2018-03-02T03:10:11.724Z,47.10
2018-03-02T03:10:44.253Z,47.10
2018-03-02T03:11:15.999Z,47.00
2018-03-02T03:11:47.727Z,47.10
2018-03-02T03:12:19.472Z,47.10
2018-03-02T03:12:51.248Z,47.10
2018-03-02T03:13:22.962Z,47.00
2018-03-02T03:13:54.707Z,47.10
2018-03-02T03:14:26.459Z,47.10
2018-03-02T03:14:58.192Z,47.10
2018-03-02T03:15:29.937Z,47.10
2018-03-02T03:16:01.703Z,47.20
2018-03-02T03:16:33.468Z,47.20
2018-03-02T03:17:05.969Z,47.10
2018-03-02T03:17:37.717Z,47.00
2018-03-02T03:18:09.766Z,47.10
2018-03-02T03:18:42.260Z,47.20
2018-03-02T03:19:13.996Z,47.10
2018-03-02T03:19:45.736Z,47.20
2018-03-02T03:20:17.487Z,47.10
2018-03-02T03:20:49.224Z,47.20
2018-03-02T03:21:20.987Z,47.00
2018-03-02T03:21:52.733Z,47.10
2018-03-02T03:22:24.476Z,47.10
2018-03-02T03:22:56.977Z,47.10
2018-03-02T03:23:28.727Z,47.10
2018-03-02T03:24:01.218Z,47.70
2018-03-02T03:24:32.968Z,47.20
2018-03-02T03:25:04.743Z,47.20
2018-03-02T03:25:36.479Z,47.20
2018-03-02T03:26:08.230Z,47.20
2018-03-02T03:26:39.977Z,47.20
2018-03-02T03:27:11.831Z,47.00
2018-03-02T03:27:44.390Z,47.20
2018-03-02T03:28:16.127Z,47.20
2018-03-02T03:28:47.903Z,47.00
2018-03-02T03:29:20.392Z,47.20
2018-03-02T03:29:52.131Z,47.20
2018-03-02T03:30:23.917Z,47.20
2018-03-02T03:30:55.665Z,47.20
2018-03-02T03:31:27.412Z,47.20
2018-03-02T03:31:59.195Z,47.20
2018-03-02T03:32:31.011Z,47.20
2018-03-02T03:33:02.756Z,47.30
2018-03-02T03:33:34.484Z,47.30
2018-03-02T03:34:06.239Z,47.50
2018-03-02T03:34:37.988Z,47.20
2018-03-02T03:35:09.733Z,47.70
2018-03-02T03:35:41.510Z,47.20
2018-03-02T03:36:13.250Z,46.90
2018-03-02T03:36:45.121Z,47.20
2018-03-02T03:37:17.662Z,47.20
2018-03-02T03:37:49.396Z,47.20
2018-03-02T03:38:21.919Z,47.20
2018-03-02T03:38:53.690Z,47.70
2018-03-02T03:39:25.436Z,47.20
2018-03-02T03:39:57.395Z,47.20
2018-03-02T03:40:29.906Z,47.30
2018-03-02T03:41:01.653Z,47.20
2018-03-02T03:41:33.408Z,47.20
2018-03-02T03:42:05.166Z,47.20
2018-03-02T03:42:36.915Z,47.20
2018-03-02T03:43:09.424Z,47.20
2018-03-02T03:43:41.163Z,47.20
2018-03-02T03:44:12.912Z,47.40
2018-03-02T03:44:44.688Z,47.20
2018-03-02T03:45:16.484Z,47.20
2018-03-02T03:45:48.990Z,47.30
2018-03-02T03:46:20.745Z,47.20
2018-03-02T03:46:52.487Z,47.30
2018-03-02T03:47:24.264Z,47.30
2018-03-02T03:47:55.979Z,47.30
2018-03-02T03:48:27.723Z,47.30
2018-03-02T03:48:59.468Z,47.30
2018-03-02T03:49:31.235Z,47.40
2018-03-02T03:50:03.750Z,47.50
2018-03-02T03:50:35.513Z,47.30
2018-03-02T03:51:07.290Z,47.40
2018-03-02T03:51:39.051Z,47.40
2018-03-02T03:52:11.555Z,47.30
2018-03-02T03:52:43.307Z,47.30
2018-03-02T03:53:15.253Z,47.40
2018-03-02T03:53:47.007Z,47.30
2018-03-02T03:54:18.783Z,47.50
2018-03-02T03:54:52.027Z,47.30
2018-03-02T03:55:23.772Z,47.40
2018-03-02T03:55:55.518Z,47.30
2018-03-02T03:56:27.269Z,47.40
2018-03-02T03:56:59.042Z,47.40
2018-03-02T03:57:31.764Z,47.40
2018-03-02T03:58:03.507Z,47.40
2018-03-02T03:58:35.248Z,47.40
2018-03-02T03:59:07.005Z,47.50
2018-03-02T03:59:38.769Z,47.40
2018-03-02T04:00:10.494Z,47.40
2018-03-02T04:00:42.241Z,47.40
2018-03-02T04:01:14.006Z,47.40
2018-03-02T04:01:45.747Z,47.40
2018-03-02T04:02:17.501Z,47.30
2018-03-02T04:02:49.262Z,47.50
2018-03-02T04:03:21.787Z,47.50
2018-03-02T04:03:53.548Z,47.40
2018-03-02T04:04:25.317Z,47.50
2018-03-02T04:04:57.823Z,47.70
2018-03-02T04:05:29.576Z,47.50
2018-03-02T04:06:01.323Z,47.50
2018-03-02T04:06:33.092Z,47.60
2018-03-02T04:07:04.824Z,47.60
2018-03-02T04:07:36.583Z,47.60
2018-03-02T04:08:08.533Z,47.60
2018-03-02T04:08:40.292Z,47.50
2018-03-02T04:09:12.852Z,47.10
2018-03-02T04:09:45.354Z,47.60
2018-03-02T04:10:17.103Z,47.60
2018-03-02T04:10:48.858Z,47.50
2018-03-02T04:11:20.597Z,47.50
2018-03-02T04:11:52.338Z,47.50
2018-03-02T04:12:24.123Z,47.50
2018-03-02T04:12:56.662Z,47.60
2018-03-02T04:13:28.408Z,47.50
2018-03-02T04:14:00.228Z,47.50
2018-03-02T04:14:32.709Z,47.60
2018-03-02T04:15:04.452Z,47.50
2018-03-02T04:15:36.201Z,47.50
2018-03-02T04:16:07.939Z,47.50
2018-03-02T04:16:39.688Z,47.60
2018-03-02T04:17:11.485Z,47.60
2018-03-02T04:17:43.994Z,47.60
2018-03-02T04:18:15.820Z,47.60
2018-03-02T04:18:47.583Z,47.60
2018-03-02T04:19:19.332Z,47.60
2018-03-02T04:19:51.086Z,47.50
2018-03-02T04:20:22.825Z,47.60
2018-03-02T04:20:54.572Z,47.60
2018-03-02T04:21:26.333Z,47.60
2018-03-02T04:21:58.078Z,47.60
2018-03-02T04:22:29.872Z,47.60
2018-03-02T04:23:01.637Z,47.60
2018-03-02T04:23:33.370Z,47.60
2018-03-02T04:24:05.136Z,48.20
2018-03-02T04:24:37.042Z,47.60
2018-03-02T04:25:09.545Z,47.60
2018-03-02T04:25:41.286Z,47.60
2018-03-02T04:26:13.034Z,47.60
2018-03-02T04:26:44.774Z,47.60
2018-03-02T04:27:16.531Z,47.60
2018-03-02T04:27:48.260Z,47.70
2018-03-02T04:28:20.018Z,47.60
2018-03-02T04:28:51.787Z,47.70
2018-03-02T04:29:23.562Z,47.60
2018-03-02T04:29:55.304Z,47.60
2018-03-02T04:30:27.032Z,47.60
2018-03-02T04:30:59.554Z,47.60
2018-03-02T04:31:31.311Z,47.60
2018-03-02T04:32:03.830Z,47.60
2018-03-02T04:32:35.596Z,47.60
2018-03-02T04:33:07.348Z,47.60
2018-03-02T04:33:39.088Z,47.50
2018-03-02T04:34:10.833Z,47.60
2018-03-02T04:34:42.583Z,47.60
2018-03-02T04:35:14.331Z,47.60
2018-03-02T04:35:46.095Z,47.60
2018-03-02T04:36:17.826Z,47.70
2018-03-02T04:36:50.350Z,48.10
2018-03-02T04:37:22.297Z,47.60
2018-03-02T04:37:54.052Z,47.60
2018-03-02T04:38:25.813Z,47.60
2018-03-02T04:38:57.601Z,47.60
2018-03-02T04:39:30.157Z,47.60
2018-03-02T04:40:01.935Z,47.60
2018-03-02T04:40:34.442Z,47.60
2018-03-02T04:41:06.207Z,47.60
2018-03-02T04:41:37.957Z,47.70
2018-03-02T04:42:10.474Z,47.80
2018-03-02T04:42:42.229Z,47.70
2018-03-02T04:43:13.988Z,47.70
2018-03-02T04:43:45.737Z,47.70
2018-03-02T04:44:17.493Z,47.70
2018-03-02T04:44:49.250Z,47.70
2018-03-02T04:45:21.794Z,47.80
2018-03-02T04:45:53.537Z,47.70
2018-03-02T04:46:25.282Z,47.70
2018-03-02T04:46:57.032Z,48.20
2018-03-02T04:47:28.902Z,47.70
2018-03-02T04:48:00.822Z,47.70
2018-03-02T04:48:32.586Z,47.70
2018-03-02T04:49:04.330Z,47.70
2018-03-02T04:49:36.079Z,47.70
2018-03-02T04:50:08.602Z,47.70
2018-03-02T04:50:40.354Z,47.70
2018-03-02T04:51:12.112Z,47.70
2018-03-02T04:51:43.853Z,47.70
2018-03-02T04:52:15.660Z,47.70
2018-03-02T04:52:47.437Z,48.30
2018-03-02T04:53:19.211Z,47.70
2018-03-02T04:53:52.253Z,47.80
2018-03-02T04:54:24.416Z,47.70
2018-03-02T04:54:56.427Z,47.70
2018-03-02T04:55:28.204Z,47.70
2018-03-02T04:55:59.946Z,47.70
2018-03-02T04:56:31.862Z,47.70
2018-03-02T04:57:03.624Z,47.70
2018-03-02T04:57:35.366Z,47.70
2018-03-02T04:58:07.137Z,47.70
2018-03-02T04:58:38.939Z,47.70
2018-03-02T04:59:11.117Z,47.80
2018-03-02T04:59:42.884Z,47.80
2018-03-02T05:00:14.628Z,47.80
2018-03-02T05:00:46.434Z,47.80
2018-03-02T05:01:18.190Z,47.70
2018-03-02T05:01:50.254Z,47.70
2018-03-02T05:02:22.048Z,47.70
2018-03-02T05:02:54.597Z,47.70
2018-03-02T05:03:26.338Z,47.70
2018-03-02T05:03:59.173Z,47.70
2018-03-02T05:04:30.928Z,47.60
2018-03-02T05:05:02.741Z,47.60
2018-03-02T05:05:35.230Z,47.40
2018-03-02T05:06:07.007Z,47.40
2018-03-02T05:06:38.814Z,47.30
2018-03-02T05:07:10.544Z,47.40
2018-03-02T05:07:42.287Z,47.30
2018-03-02T05:08:14.048Z,47.30
2018-03-02T05:08:47.323Z,47.30
2018-03-02T05:09:19.084Z,47.30
2018-03-02T05:09:50.827Z,47.30
2018-03-02T05:10:22.562Z,47.40
2018-03-02T05:10:54.296Z,47.40
2018-03-02T05:11:26.051Z,47.40
2018-03-02T05:11:57.811Z,47.50
2018-03-02T05:12:30.334Z,48.10
2018-03-02T05:13:02.217Z,47.50
2018-03-02T05:13:33.958Z,47.50
2018-03-02T05:14:05.708Z,47.50
2018-03-02T05:14:37.462Z,47.50
2018-03-02T05:15:09.212Z,47.60
2018-03-02T05:15:40.957Z,47.50
2018-03-02T05:16:12.755Z,47.60
2018-03-02T05:16:44.532Z,47.60
2018-03-02T05:17:16.271Z,47.70
2018-03-02T05:17:48.026Z,47.50
2018-03-02T05:18:19.784Z,47.50
2018-03-02T05:18:52.318Z,47.80
2018-03-02T05:19:24.071Z,47.40
2018-03-02T05:19:55.810Z,47.40
2018-03-02T05:20:27.576Z,47.50
2018-03-02T05:20:59.317Z,47.50
2018-03-02T05:21:31.067Z,47.70
2018-03-02T05:22:02.848Z,47.50
2018-03-02T05:22:34.620Z,47.90
2018-03-02T05:23:06.367Z,47.40
2018-03-02T05:23:38.113Z,47.40
2018-03-02T05:24:09.856Z,47.40
2018-03-02T05:24:41.611Z,47.40
2018-03-02T05:25:13.358Z,47.50
2018-03-02T05:25:45.100Z,47.80
2018-03-02T05:26:16.850Z,47.60
2018-03-02T05:26:48.608Z,47.20
2018-03-02T05:27:20.629Z,47.20
2018-03-02T05:27:52.530Z,47.40
2018-03-02T05:28:24.276Z,47.70
2018-03-02T05:28:56.302Z,47.70
2018-03-02T05:29:28.048Z,47.80
2018-03-02T05:29:59.823Z,47.90
2018-03-02T05:30:31.587Z,47.90
2018-03-02T05:31:03.344Z,47.90
2018-03-02T05:31:35.099Z,47.90
2018-03-02T05:32:06.877Z,47.90
2018-03-02T05:32:38.615Z,47.90
2018-03-02T05:33:11.869Z,47.90
2018-03-02T05:33:43.616Z,47.90
2018-03-02T05:34:15.375Z,47.90
2018-03-02T05:34:47.113Z,47.90
2018-03-02T05:35:18.872Z,47.80
2018-03-02T05:35:50.599Z,47.90
2018-03-02T05:36:22.348Z,47.80
2018-03-02T05:36:54.392Z,47.70
2018-03-02T05:37:26.348Z,47.40
2018-03-02T05:37:58.108Z,47.30
2018-03-02T05:38:29.847Z,47.60
2018-03-02T05:39:01.648Z,47.40
2018-03-02T05:39:33.428Z,47.60
2018-03-02T05:40:05.185Z,48.70
2018-03-02T05:40:36.936Z,47.90
2018-03-02T05:41:08.691Z,47.50
2018-03-02T05:41:41.978Z,47.90
2018-03-02T05:42:14.495Z,47.70
2018-03-02T05:42:46.237Z,47.70
2018-03-02T05:43:18.010Z,47.40
2018-03-02T05:43:49.749Z,48.00
2018-03-02T05:44:21.531Z,47.60
2018-03-02T05:44:53.369Z,47.10
2018-03-02T05:45:26.083Z,47.10
2018-03-02T05:45:57.828Z,47.20
2018-03-02T05:46:29.590Z,53.90
2018-03-02T05:47:01.404Z,55.10
2018-03-02T05:47:33.144Z,49.10
2018-03-02T05:48:04.892Z,48.10
2018-03-02T05:48:36.640Z,48.10
2018-03-02T05:49:08.407Z,47.90
2018-03-02T05:49:40.209Z,47.80
2018-03-02T05:50:12.004Z,47.30
2018-03-02T05:50:43.748Z,47.70
2018-03-02T05:51:15.481Z,48.10
2018-03-02T05:51:47.236Z,48.10
2018-03-02T05:52:19.016Z,47.90
2018-03-02T05:52:51.597Z,48.10
2018-03-02T05:53:23.506Z,48.10
2018-03-02T05:53:55.246Z,48.00
2018-03-02T05:54:27.008Z,48.50
2018-03-02T05:54:59.527Z,48.30
2018-03-02T05:55:31.295Z,48.30
2018-03-02T05:56:03.029Z,49.40
2018-03-02T05:56:34.770Z,48.50
2018-03-02T05:57:06.530Z,52.30
2018-03-02T05:57:38.290Z,48.20
2018-03-02T05:58:10.809Z,48.20
2018-03-02T05:58:42.561Z,48.30
2018-03-02T05:59:14.324Z,48.20
2018-03-02T05:59:46.061Z,48.30
2018-03-02T06:00:17.853Z,49.20
2018-03-02T06:00:50.376Z,48.20
2018-03-02T06:01:22.240Z,48.10
2018-03-02T06:01:54.209Z,48.30
2018-03-02T06:02:25.976Z,48.10
2018-03-02T06:02:57.733Z,48.30
2018-03-02T06:03:30.977Z,48.30
2018-03-02T06:04:04.364Z,47.90
2018-03-02T06:04:38.667Z,49.40
2018-03-02T06:05:11.910Z,49.50
2018-03-02T06:05:45.617Z,48.70
2018-03-02T06:06:19.608Z,50.00
2018-03-02T06:06:53.823Z,48.60
2018-03-02T06:07:26.498Z,48.50
2018-03-02T06:08:00.913Z,51.40
2018-03-02T06:08:36.109Z,49.30
2018-03-02T06:09:07.864Z,49.00
2018-03-02T06:09:39.625Z,49.40
2018-03-02T06:10:11.396Z,50.20
2018-03-02T06:10:43.167Z,48.90
2018-03-02T06:11:15.673Z,52.00
2018-03-02T06:11:47.427Z,52.10
2018-03-02T06:12:19.192Z,51.90
2018-03-02T06:12:50.941Z,51.80
2018-03-02T06:13:22.675Z,49.50
2018-03-02T06:13:54.440Z,51.30
2018-03-02T06:14:26.959Z,52.30
2018-03-02T06:14:58.704Z,52.20
2018-03-02T06:15:30.436Z,49.60
2018-03-02T06:16:02.217Z,50.20
2018-03-02T06:16:33.999Z,50.30
2018-03-02T06:17:05.899Z,52.30
2018-03-02T06:17:37.726Z,51.70
2018-03-02T06:18:09.476Z,52.40
2018-03-02T06:18:41.441Z,52.20
2018-03-02T06:19:13.196Z,53.50
2018-03-02T06:19:44.946Z,52.50
2018-03-02T06:20:16.689Z,52.10
2018-03-02T06:20:48.444Z,52.30
2018-03-02T06:21:20.191Z,50.80
2018-03-02T06:21:51.949Z,52.40
2018-03-02T06:22:23.704Z,52.30
2018-03-02T06:22:55.439Z,52.90
2018-03-02T06:23:27.183Z,53.10
2018-03-02T06:23:58.935Z,51.90
2018-03-02T06:24:30.727Z,52.50
2018-03-02T06:25:03.208Z,52.40
2018-03-02T06:25:34.975Z,52.30
2018-03-02T06:26:06.705Z,52.50
2018-03-02T06:26:38.444Z,52.00
2018-03-02T06:27:10.193Z,52.50
2018-03-02T06:27:41.927Z,52.00
2018-03-02T06:28:13.681Z,52.90
2018-03-02T06:28:45.442Z,52.40
2018-03-02T06:29:17.167Z,53.40
2018-03-02T06:29:48.910Z,53.30
2018-03-02T06:30:20.681Z,51.60
2018-03-02T06:30:52.416Z,51.70
2018-03-02T06:31:24.167Z,52.50
2018-03-02T06:31:55.903Z,52.80
2018-03-02T06:32:27.840Z,53.40
2018-03-02T06:32:59.579Z,53.20
2018-03-02T06:33:31.324Z,53.30
2018-03-02T06:34:03.063Z,52.50
2018-03-02T06:34:34.811Z,53.00
2018-03-02T06:35:06.554Z,53.20
2018-03-02T06:35:38.311Z,53.10
2018-03-02T06:36:10.062Z,53.40
2018-03-02T06:36:41.881Z,52.60
2018-03-02T06:37:13.623Z,52.60
2018-03-02T06:37:45.368Z,53.00
2018-03-02T06:38:17.130Z,51.90
2018-03-02T06:38:48.869Z,52.70
2018-03-02T06:39:20.634Z,53.10
2018-03-02T06:39:52.357Z,53.30
2018-03-02T06:40:24.099Z,52.30
2018-03-02T06:40:55.846Z,53.30
2018-03-02T06:41:27.594Z,53.10
2018-03-02T06:41:59.335Z,53.50
2018-03-02T06:42:31.082Z,53.00
2018-03-02T06:43:02.825Z,53.30
2018-03-02T06:43:34.652Z,53.50
2018-03-02T06:44:07.110Z,53.30
2018-03-02T06:44:38.873Z,53.30
2018-03-02T06:45:10.812Z,53.40
2018-03-02T06:45:42.555Z,52.90
2018-03-02T06:46:14.297Z,52.70
2018-03-02T06:46:46.037Z,52.20
2018-03-02T06:47:17.801Z,52.70
2018-03-02T06:47:49.536Z,53.00
2018-03-02T06:48:21.285Z,52.60
2018-03-02T06:48:53.022Z,52.80
2018-03-02T06:49:24.760Z,52.90
2018-03-02T06:49:56.505Z,52.70
2018-03-02T06:50:28.251Z,53.00